Sparta, TN

1:11 AM CST on November 19, 2017 (GMT -0600)
Upper Cumberland Regional

Weather History for KSRB - March, 2014

Change the Weather History Date:

Thursday, March 27, 2014

  Actual Average (KCSV) Record (KCSV)
Temperature  
Mean Temperature 44 °F -  
Max Temperature 64 °F 58 °F 77 °F (2007)
Min Temperature 24 °F 37 °F 9 °F (1955)
Degree Days  
Heating Degree Days 21    
Moisture  
Dew Point 19 °F    
Average Humidity 35    
Maximum Humidity 87    
Minimum Humidity 16    
Precipitation  
Precipitation 0.00 in - - ()
Sea Level Pressure  
Sea Level Pressure 30.11 in    
Wind  
Wind Speed 8 mph (South)    
Max Wind Speed 21 mph    
Max Gust Speed 26 mph    
Visibility 10 miles    
Events      
Averages and records for this station are not official NWS values.
T = Trace of Precipitation, MM = Missing Value Source: NWS Daily Summary

Daily Weather History Graph

Daily Weather History Graph

Search for Another Location

Airport or City:

Trip Planner

Search our weather history database for the weather conditions in past years. The results will help you decide how hot, cold, wet, or windy it might be!

Date:

Astronomy

Mar. 27, 2014 Rise Set
Actual Time 6:35 AM CDT 6:59 PM CDT
Civil Twilight 6:09 AM CDT 7:25 PM CDT
Nautical Twilight 5:39 AM CDT 7:55 PM CDT
Astronomical Twilight 5:09 AM CDT 8:26 PM CDT
Moon 4:20 AM CDT (3/27) 3:51 PM CDT (3/27)
Length of Visible Light 13h 15m
Length of Day
12h 24m
Waning Crescent, 13% of the Moon is Illuminated
Mar 27
Waning Crescent
Mar 30
New
Apr 7
First Quarter
Apr 15
Full
Apr 22
Last Quarter

Hourly Weather History & Observations

Time (CDT) Temp. Windchill Dew Point Humidity Pressure Visibility Wind Dir Wind Speed Gust Speed Precip Events Conditions
12:15 AM 24.8 °F - 19.4 °F 80% 30.22 in 10.0 mi Calm Calm - N/A   Clear
12:35 AM 24.8 °F - 19.4 °F 80% 30.22 in 10.0 mi Calm Calm - N/A   Clear
12:55 AM 24.8 °F - 19.4 °F 80% 30.22 in 10.0 mi Calm Calm - N/A   Clear
1:15 AM 24.8 °F - 21.2 °F 86% 30.21 in 10.0 mi Calm Calm - N/A   Clear
1:35 AM 26.6 °F 21.2 °F 21.2 °F 80% 30.21 in 10.0 mi South 4.6 mph - N/A   Clear
1:55 AM 32.0 °F - 14.0 °F 48% 30.20 in 10.0 mi Calm Calm - N/A   Clear
2:15 AM 33.8 °F - 17.6 °F 52% 30.18 in 10.0 mi Calm Calm - N/A   Clear
2:35 AM 32.0 °F 28.7 °F 19.4 °F 60% 30.20 in 10.0 mi SW 3.5 mph - N/A   Clear
2:55 AM 33.8 °F 30.8 °F 15.8 °F 48% 30.18 in 10.0 mi SSE 3.5 mph - N/A   Clear
3:15 AM 35.6 °F - 15.8 °F 44% 30.18 in 10.0 mi Calm Calm - N/A   Clear
3:35 AM 35.6 °F 31.7 °F 17.6 °F 48% 30.18 in 10.0 mi South 4.6 mph - N/A   Clear
3:55 AM 37.4 °F 33.8 °F 15.8 °F 41% 30.19 in 10.0 mi South 4.6 mph - N/A   Clear
4:15 AM 37.4 °F 33.8 °F 15.8 °F 41% 30.19 in 10.0 mi South 4.6 mph - N/A   Clear
4:35 AM 37.4 °F 32.8 °F 15.8 °F 41% 30.19 in 10.0 mi SSE 5.8 mph - N/A   Clear
4:55 AM 37.4 °F 32.8 °F 12.2 °F 36% 30.19 in 10.0 mi South 5.8 mph - N/A   Clear
5:15 AM 37.4 °F 30.8 °F 12.2 °F 36% 30.19 in 10.0 mi South 9.2 mph - N/A   Clear
5:35 AM 37.4 °F 30.8 °F 12.2 °F 36% 30.18 in 10.0 mi South 9.2 mph - N/A   Clear
5:55 AM 39.2 °F 33.0 °F 12.2 °F 33% 30.18 in 10.0 mi South 9.2 mph - N/A   Clear
6:15 AM 39.2 °F 34.2 °F 12.2 °F 33% 30.19 in 10.0 mi South 6.9 mph - N/A   Clear
6:35 AM 39.2 °F 35.0 °F 12.2 °F 33% 30.20 in 10.0 mi South 5.8 mph - N/A   Clear
6:55 AM 41.0 °F 36.4 °F 12.2 °F 31% 30.20 in 10.0 mi South 6.9 mph - N/A   Partly Cloudy
7:15 AM 41.0 °F 36.4 °F 12.2 °F 31% 30.21 in 10.0 mi South 6.9 mph - N/A   Partly Cloudy
7:35 AM 42.8 °F 39.3 °F 12.2 °F 29% 30.22 in 10.0 mi South 5.8 mph - N/A   Clear
7:55 AM 42.8 °F 37.5 °F 12.2 °F 29% 30.22 in 10.0 mi South 9.2 mph - N/A   Clear
8:15 AM 42.8 °F 35.8 °F 12.2 °F 29% 30.21 in 10.0 mi SSE 13.8 mph - N/A   Clear
8:35 AM 44.6 °F 39.2 °F 12.2 °F 27% 30.19 in 10.0 mi SSE 10.4 mph - N/A   Clear
8:55 AM 44.6 °F 38.4 °F 12.2 °F 27% 30.18 in 10.0 mi South 12.7 mph - N/A   Clear
9:15 AM 44.6 °F 38.4 °F 12.2 °F 27% 30.19 in 10.0 mi South 12.7 mph - N/A   Clear
9:35 AM 46.4 °F 40.7 °F 14.0 °F 27% 30.19 in 10.0 mi South 12.7 mph - N/A   Partly Cloudy
9:55 AM 46.4 °F 40.4 °F 14.0 °F 27% 30.18 in 10.0 mi South 13.8 mph - N/A   Partly Cloudy
10:15 AM 51.8 °F - 15.8 °F 24% 30.17 in 10.0 mi South 16.1 mph - N/A   Partly Cloudy
10:35 AM 51.8 °F - 15.8 °F 24% 30.17 in 10.0 mi South 13.8 mph - N/A   Clear
10:55 AM 53.6 °F - 15.8 °F 22% 30.17 in 10.0 mi South 15.0 mph - N/A   Clear
11:15 AM 53.6 °F - 15.8 °F 22% 30.16 in 10.0 mi South 18.4 mph - N/A   Partly Cloudy
11:35 AM 57.2 °F - 15.8 °F 20% 30.15 in 10.0 mi South 19.6 mph - N/A   Clear
11:55 AM 57.2 °F - 15.8 °F 20% 30.15 in 10.0 mi South 11.5 mph - N/A   Clear
12:15 PM 57.2 °F - 15.8 °F 20% 30.14 in 10.0 mi South 17.3 mph - N/A   Clear
12:35 PM 59.0 °F - 15.8 °F 19% 30.13 in 10.0 mi South 15.0 mph - N/A   Partly Cloudy
12:55 PM 57.2 °F - 15.8 °F 20% 30.13 in 10.0 mi South 16.1 mph - N/A   Partly Cloudy
1:15 PM 60.8 °F - 17.6 °F 19% 30.12 in 10.0 mi South 20.7 mph - N/A   Clear
1:35 PM 57.2 °F - 17.6 °F 21% 30.12 in 10.0 mi South 12.7 mph - N/A   Mostly Cloudy
1:55 PM 57.2 °F - 17.6 °F 21% 30.11 in 10.0 mi South 11.5 mph - N/A   Mostly Cloudy
2:15 PM 57.2 °F - 17.6 °F 21% 30.09 in 10.0 mi South 13.8 mph - N/A   Scattered Clouds
2:35 PM 59.0 °F - 17.6 °F 20% 30.07 in 10.0 mi South 10.4 mph - N/A   Partly Cloudy
2:55 PM 60.8 °F - 17.6 °F 19% 30.06 in 10.0 mi South 15.0 mph - N/A   Clear
3:15 PM 62.6 °F - 15.8 °F 16% 30.04 in 10.0 mi South 15.0 mph - N/A   Clear
3:35 PM 62.6 °F - 17.6 °F 18% 30.03 in 10.0 mi South 18.4 mph - N/A   Clear
3:55 PM 62.6 °F - 17.6 °F 18% 30.02 in 10.0 mi South 18.4 mph - N/A   Clear
4:15 PM 62.6 °F - 17.6 °F 18% 30.01 in 10.0 mi South 18.4 mph - N/A   Clear
4:35 PM 64.4 °F - 19.4 °F 18% 30.01 in 10.0 mi South 16.1 mph - N/A   Clear
4:55 PM 62.6 °F - 19.4 °F 19% 30.01 in 10.0 mi South 11.5 mph - N/A   Clear
5:15 PM 62.6 °F - 19.4 °F 19% 30.00 in 10.0 mi South 16.1 mph - N/A   Partly Cloudy
5:35 PM 62.6 °F - 19.4 °F 19% 30.01 in 10.0 mi South 19.6 mph 26.5 mph N/A   Partly Cloudy
5:55 PM 62.6 °F - 19.4 °F 19% 30.01 in 10.0 mi South 13.8 mph - N/A   Partly Cloudy
6:15 PM 60.8 °F - 21.2 °F 22% 30.00 in 10.0 mi South 13.8 mph - N/A   Partly Cloudy
6:35 PM 60.8 °F - 21.2 °F 22% 30.00 in 10.0 mi South 13.8 mph - N/A   Scattered Clouds
6:55 PM 60.8 °F - 21.2 °F 22% 30.00 in 10.0 mi South 15.0 mph - N/A   Partly Cloudy
7:15 PM 60.8 °F - 21.2 °F 22% 30.00 in 10.0 mi South 16.1 mph - N/A   Mostly Cloudy
7:35 PM 60.8 °F - 21.2 °F 22% 29.99 in 10.0 mi South 12.7 mph - N/A   Scattered Clouds
7:55 PM 60.8 °F - 21.2 °F 22% 29.98 in 10.0 mi South 15.0 mph - N/A   Clear
8:15 PM 60.8 °F - 23.0 °F 23% 29.99 in 10.0 mi South 15.0 mph - N/A   Clear
8:35 PM 59.0 °F - 26.6 °F 29% 30.00 in 10.0 mi South 13.8 mph - N/A   Mostly Cloudy
8:55 PM 57.2 °F - 26.6 °F 31% 30.00 in 10.0 mi South 15.0 mph - N/A   Mostly Cloudy
9:15 PM 59.0 °F - 24.8 °F 27% 29.99 in 10.0 mi South 13.8 mph - N/A   Partly Cloudy
9:35 PM 59.0 °F - 24.8 °F 27% 30.00 in 10.0 mi South 15.0 mph - N/A   Scattered Clouds
9:55 PM 57.2 °F - 30.2 °F 36% 30.01 in 10.0 mi South 11.5 mph - N/A   Mostly Cloudy
10:15 PM 53.6 °F - 35.6 °F 51% 30.05 in 8.0 mi SSW 11.5 mph - N/A   Mostly Cloudy
10:35 PM 48.2 °F - 44.6 °F 87% 30.08 in 5.0 mi WNW 3.5 mph - N/A   Mostly Cloudy
10:55 PM 48.2 °F - 42.8 °F 82% 30.07 in 4.0 mi South 6.9 mph - N/A   Overcast
11:15 PM 48.2 °F - 42.8 °F 82% 30.04 in 6.0 mi South 4.6 mph - N/A   Overcast
11:35 PM 50.0 °F - 42.8 °F 76% 30.03 in 10.0 mi South 10.4 mph - N/A   Mostly Cloudy
11:55 PM 51.8 °F - 42.8 °F 71% 30.02 in 10.0 mi South 11.5 mph - N/A   Mostly Cloudy